createdAt,value
2023-05-16T00:01:04.843Z,99269.00
2023-05-16T00:02:39.489Z,99269.00
2023-05-16T00:04:13.003Z,99265.00
2023-05-16T00:05:46.568Z,99262.00
2023-05-16T00:07:19.733Z,99262.00
2023-05-16T00:08:52.804Z,99258.00
2023-05-16T00:10:26.221Z,99268.00
2023-05-16T00:11:59.830Z,99266.00
2023-05-16T00:13:34.405Z,99277.00
2023-05-16T00:15:12.667Z,99279.00
2023-05-16T00:16:44.863Z,99279.00
2023-05-16T00:18:18.010Z,99281.00
2023-05-16T00:19:58.143Z,99283.00
2023-05-16T00:21:31.916Z,99295.00
2023-05-16T00:23:05.065Z,99298.00
2023-05-16T00:24:38.127Z,99296.00
2023-05-16T00:26:11.338Z,99299.00
2023-05-16T00:27:46.880Z,99306.00
2023-05-16T00:29:21.518Z,99308.00
2023-05-16T00:30:53.686Z,99312.00
2023-05-16T00:32:26.857Z,99315.00
2023-05-16T00:34:00.028Z,99309.00
2023-05-16T00:35:33.352Z,99307.00
2023-05-16T00:37:06.750Z,99306.00
2023-05-16T00:38:39.866Z,99315.00
2023-05-16T00:40:13.570Z,99310.00
2023-05-16T00:41:47.504Z,99312.00
2023-05-16T00:43:21.199Z,99316.00
2023-05-16T00:44:58.395Z,99320.00
2023-05-16T00:46:31.558Z,99314.00
2023-05-16T00:48:05.488Z,99319.00
2023-05-16T00:49:37.997Z,99318.00
2023-05-16T00:51:11.685Z,99324.00
2023-05-16T00:52:45.089Z,99324.00
2023-05-16T00:54:18.872Z,99320.00
2023-05-16T00:55:53.796Z,99324.00
2023-05-16T00:57:27.052Z,99315.00
2023-05-16T00:59:00.714Z,99326.00
2023-05-16T01:00:36.120Z,99323.00
2023-05-16T01:02:09.392Z,99327.00
2023-05-16T01:03:45.998Z,99331.00
2023-05-16T01:05:19.638Z,99324.00
2023-05-16T01:06:53.217Z,99327.00
2023-05-16T01:08:26.378Z,99323.00
2023-05-16T01:09:59.926Z,99326.00
2023-05-16T01:11:44.503Z,99325.00
2023-05-16T01:13:28.519Z,99325.00
2023-05-16T01:15:10.723Z,99325.00
2023-05-16T01:16:55.549Z,99334.00
2023-05-16T01:18:40.105Z,99330.00
2023-05-16T01:20:34.810Z,99329.00
2023-05-16T01:22:17.166Z,99342.00
2023-05-16T01:24:01.582Z,99338.00
2023-05-16T01:25:57.632Z,99335.00
2023-05-16T01:27:34.371Z,99337.00
2023-05-16T01:29:08.430Z,99343.00
2023-05-16T01:30:42.602Z,99342.00
2023-05-16T01:32:14.844Z,99340.00
2023-05-16T01:33:48.134Z,99337.00
2023-05-16T01:35:20.857Z,99344.00
2023-05-16T01:37:06.670Z,99345.00
2023-05-16T01:38:45.652Z,99335.00
2023-05-16T01:40:30.712Z,99340.00
2023-05-16T01:42:09.521Z,99346.00
2023-05-16T01:43:49.276Z,99337.00
2023-05-16T01:45:30.200Z,99340.00
2023-05-16T01:47:10.607Z,99335.00
2023-05-16T01:48:54.078Z,99338.00
2023-05-16T01:50:30.470Z,99339.00
2023-05-16T01:52:11.525Z,99341.00
2023-05-16T01:53:45.853Z,99342.00
2023-05-16T01:55:30.670Z,99346.00
2023-05-16T01:57:08.672Z,99347.00
2023-05-16T01:58:44.084Z,99353.00
2023-05-16T02:00:17.548Z,99353.00
2023-05-16T02:01:50.718Z,99349.00
2023-05-16T02:03:22.852Z,99353.00
2023-05-16T02:04:56.074Z,99356.00
2023-05-16T02:06:29.296Z,99343.00
2023-05-16T02:08:03.672Z,99348.00
2023-05-16T02:09:36.790Z,99346.00
2023-05-16T02:11:08.901Z,99350.00
2023-05-16T02:12:42.084Z,99351.00
2023-05-16T02:14:16.500Z,99353.00
2023-05-16T02:15:48.675Z,99349.00
2023-05-16T02:17:21.901Z,99347.00
2023-05-16T02:18:54.360Z,99353.00
2023-05-16T02:20:27.774Z,99361.00
2023-05-16T02:22:00.845Z,99353.00
2023-05-16T02:23:32.932Z,99357.00
2023-05-16T02:25:08.127Z,99362.00
2023-05-16T02:26:41.076Z,99354.00
2023-05-16T02:28:14.212Z,99353.00
2023-05-16T02:29:48.723Z,99360.00
2023-05-16T02:31:29.913Z,99368.00
2023-05-16T02:33:03.312Z,99365.00
2023-05-16T02:34:36.681Z,99370.00
2023-05-16T02:36:11.013Z,99372.00
2023-05-16T02:37:44.067Z,99370.00
2023-05-16T02:39:17.089Z,99378.00
2023-05-16T02:40:50.565Z,99393.00
2023-05-16T02:42:23.644Z,99393.00
2023-05-16T02:43:56.703Z,99390.00
2023-05-16T02:45:33.299Z,99388.00
2023-05-16T02:47:06.460Z,99395.00
2023-05-16T02:48:39.477Z,99405.00
2023-05-16T02:50:12.540Z,99403.00
2023-05-16T02:51:45.727Z,99406.00
2023-05-16T02:53:18.952Z,99410.00
2023-05-16T02:55:09.384Z,99411.00
2023-05-16T02:56:45.365Z,99419.00
2023-05-16T02:58:20.642Z,99430.00
2023-05-16T02:59:53.726Z,99427.00
2023-05-16T03:01:28.335Z,99428.00
2023-05-16T03:03:01.557Z,99432.00
2023-05-16T03:04:34.465Z,99433.00
2023-05-16T03:06:07.899Z,99427.00
2023-05-16T03:07:41.428Z,99434.00
2023-05-16T03:09:13.674Z,99437.00
2023-05-16T03:10:46.684Z,99428.00
2023-05-16T03:12:20.194Z,99437.00
2023-05-16T03:13:53.291Z,99438.00
2023-05-16T03:15:26.803Z,99435.00
2023-05-16T03:17:01.591Z,99437.00
2023-05-16T03:18:34.771Z,99444.00
2023-05-16T03:20:11.521Z,99449.00
2023-05-16T03:21:44.638Z,99442.00
2023-05-16T03:23:18.455Z,99441.00
2023-05-16T03:24:51.627Z,99449.00
2023-05-16T03:26:24.458Z,99447.00
2023-05-16T03:27:58.200Z,99452.00
2023-05-16T03:29:31.316Z,99452.00
2023-05-16T03:31:03.485Z,99449.00
2023-05-16T03:32:39.608Z,99454.00
2023-05-16T03:34:12.707Z,99456.00
2023-05-16T03:35:46.081Z,99458.00
2023-05-16T03:37:19.356Z,99450.00
2023-05-16T03:38:52.704Z,99456.00
2023-05-16T03:40:27.012Z,99461.00
2023-05-16T03:42:00.286Z,99464.00
2023-05-16T03:43:32.683Z,99461.00
2023-05-16T03:45:08.133Z,99468.00
2023-05-16T03:46:41.352Z,99466.00
2023-05-16T03:48:15.929Z,99470.00
2023-05-16T03:49:49.030Z,99463.00
2023-05-16T03:51:22.043Z,99467.00
2023-05-16T03:52:55.290Z,99473.00
2023-05-16T03:54:28.313Z,99469.00
2023-05-16T03:56:01.378Z,99466.00
2023-05-16T03:57:34.426Z,99468.00
2023-05-16T03:59:07.559Z,99475.00
2023-05-16T04:00:40.581Z,99473.00
2023-05-16T04:02:13.662Z,99471.00
2023-05-16T04:03:48.140Z,99476.00
2023-05-16T04:05:21.543Z,99479.00
2023-05-16T04:06:54.636Z,99477.00
2023-05-16T04:08:27.839Z,99477.00
2023-05-16T04:10:00.858Z,99485.00
2023-05-16T04:11:34.427Z,99480.00
2023-05-16T04:13:07.439Z,99492.00
2023-05-16T04:14:40.586Z,99481.00
2023-05-16T04:16:13.810Z,99491.00
2023-05-16T04:17:46.985Z,99492.00
2023-05-16T04:19:21.448Z,99496.00
2023-05-16T04:20:54.599Z,99495.00
2023-05-16T04:22:28.397Z,99507.00
2023-05-16T04:24:01.524Z,99501.00
2023-05-16T04:25:34.552Z,99499.00
2023-05-16T04:27:09.802Z,99501.00
2023-05-16T04:28:42.982Z,99501.00
2023-05-16T04:30:17.334Z,99503.00
2023-05-16T04:31:49.665Z,99505.00
2023-05-16T04:33:22.903Z,99511.00
2023-05-16T04:34:57.367Z,99509.00
2023-05-16T04:36:31.477Z,99510.00
2023-05-16T04:38:04.601Z,99513.00
2023-05-16T04:39:37.927Z,99515.00
2023-05-16T04:41:11.046Z,99521.00
2023-05-16T04:42:44.329Z,99523.00
2023-05-16T04:44:17.418Z,99520.00
2023-05-16T04:45:50.637Z,99523.00
2023-05-16T04:47:22.748Z,99532.00
2023-05-16T04:48:55.890Z,99533.00
2023-05-16T04:50:30.401Z,99539.00
2023-05-16T04:52:03.536Z,99535.00
2023-05-16T04:53:36.694Z,99546.00
2023-05-16T04:55:11.961Z,99540.00
2023-05-16T04:56:45.042Z,99544.00
2023-05-16T04:58:18.179Z,99535.00
2023-05-16T04:59:51.198Z,99545.00
2023-05-16T05:01:24.308Z,99550.00
2023-05-16T05:02:57.448Z,99550.00
2023-05-16T05:04:30.675Z,99547.00
2023-05-16T05:06:05.629Z,99563.00
2023-05-16T05:07:38.764Z,99553.00
2023-05-16T05:09:11.905Z,99566.00
2023-05-16T05:10:45.101Z,99563.00
2023-05-16T05:12:18.146Z,99568.00
2023-05-16T05:13:52.911Z,99575.00
2023-05-16T05:15:26.438Z,99575.00
2023-05-16T05:16:59.734Z,99575.00
2023-05-16T05:18:32.910Z,99576.00
2023-05-16T05:20:08.549Z,99588.00
2023-05-16T05:21:43.054Z,99586.00
2023-05-16T05:23:16.588Z,99585.00
2023-05-16T05:24:49.700Z,99597.00
2023-05-16T05:26:22.955Z,99585.00
2023-05-16T05:27:56.009Z,99592.00
2023-05-16T05:29:29.869Z,99599.00
2023-05-16T05:31:04.430Z,99598.00
2023-05-16T05:32:37.634Z,99599.00
2023-05-16T05:34:11.088Z,99603.00
2023-05-16T05:35:44.256Z,99605.00
2023-05-16T05:37:18.680Z,99611.00
2023-05-16T05:38:51.775Z,99610.00
2023-05-16T05:40:24.854Z,99614.00
2023-05-16T05:41:58.618Z,99606.00
2023-05-16T05:43:31.622Z,99612.00
2023-05-16T05:45:05.775Z,99611.00
2023-05-16T05:46:39.099Z,99614.00
2023-05-16T05:48:12.769Z,99617.00
2023-05-16T05:49:46.168Z,99614.00
2023-05-16T05:51:19.886Z,99621.00
2023-05-16T05:52:54.691Z,99628.00
2023-05-16T05:54:26.906Z,99623.00
2023-05-16T05:55:59.852Z,99626.00
2023-05-16T05:57:33.036Z,99629.00
2023-05-16T05:59:06.088Z,99619.00
2023-05-16T06:00:39.208Z,99626.00
2023-05-16T06:02:12.344Z,99623.00
2023-05-16T06:03:45.503Z,99623.00
2023-05-16T06:05:18.598Z,99628.00
2023-05-16T06:06:52.540Z,99632.00
2023-05-16T06:08:27.036Z,99627.00
2023-05-16T06:10:05.120Z,99630.00
2023-05-16T06:11:38.457Z,99636.00
2023-05-16T06:13:11.718Z,99638.00
2023-05-16T06:14:44.801Z,99644.00
2023-05-16T06:16:18.060Z,99651.00
2023-05-16T06:17:51.139Z,99642.00
2023-05-16T06:19:24.702Z,99639.00
2023-05-16T06:20:57.918Z,99640.00
2023-05-16T06:22:31.048Z,99644.00
2023-05-16T06:24:06.054Z,99653.00
2023-05-16T06:25:39.343Z,99647.00
2023-05-16T06:27:12.347Z,99645.00
2023-05-16T06:28:45.466Z,99656.00
2023-05-16T06:30:18.911Z,99647.00
2023-05-16T06:31:52.490Z,99655.00
2023-05-16T06:33:25.654Z,99668.00
2023-05-16T06:34:58.749Z,99656.00
2023-05-16T06:36:31.882Z,99649.00
2023-05-16T06:38:05.124Z,99655.00
2023-05-16T06:39:39.534Z,99654.00
2023-05-16T06:41:12.620Z,99660.00
2023-05-16T06:42:45.711Z,99658.00
2023-05-16T06:44:18.918Z,99658.00
2023-05-16T06:45:52.028Z,99660.00
2023-05-16T06:47:25.395Z,99663.00
2023-05-16T06:48:58.544Z,99658.00
2023-05-16T06:50:31.792Z,99654.00
2023-05-16T06:52:05.730Z,99657.00
2023-05-16T06:53:38.943Z,99660.00
2023-05-16T06:55:13.911Z,99662.00
2023-05-16T06:56:47.181Z,99672.00
2023-05-16T06:58:20.300Z,99666.00
2023-05-16T06:59:53.392Z,99663.00
2023-05-16T07:01:26.571Z,99661.00
2023-05-16T07:02:59.860Z,99665.00
2023-05-16T07:04:34.366Z,99665.00
2023-05-16T07:06:07.929Z,99662.00
2023-05-16T07:07:41.171Z,99664.00
2023-05-16T07:09:14.585Z,99675.00
2023-05-16T07:10:49.079Z,99674.00
2023-05-16T07:12:22.268Z,99673.00
2023-05-16T07:13:55.431Z,99662.00
2023-05-16T07:15:28.816Z,99668.00
2023-05-16T07:17:02.700Z,99664.00
2023-05-16T07:18:36.135Z,99669.00
2023-05-16T07:20:13.421Z,99664.00
2023-05-16T07:21:48.700Z,99676.00
2023-05-16T07:23:22.183Z,99675.00
2023-05-16T07:24:57.223Z,99677.00
2023-05-16T07:26:31.648Z,99673.00
2023-05-16T07:28:05.185Z,99672.00
2023-05-16T07:29:39.100Z,99677.00
2023-05-16T07:31:12.502Z,99675.00
2023-05-16T07:32:46.130Z,99681.00
2023-05-16T07:34:20.951Z,99680.00
2023-05-16T07:36:12.122Z,99680.00
2023-05-16T07:37:49.334Z,99686.00
2023-05-16T07:39:22.567Z,99684.00
2023-05-16T07:40:56.176Z,99687.00
2023-05-16T07:42:30.681Z,99686.00
2023-05-16T07:44:04.150Z,99693.00
2023-05-16T07:45:37.559Z,99683.00
2023-05-16T07:47:10.694Z,99686.00
2023-05-16T07:48:43.824Z,99692.00
2023-05-16T07:50:17.007Z,99695.00
2023-05-16T07:51:50.333Z,99690.00
2023-05-16T07:53:23.677Z,99701.00
2023-05-16T07:54:56.863Z,99695.00
2023-05-16T07:56:30.218Z,99695.00
2023-05-16T07:58:05.160Z,99706.00
2023-05-16T07:59:38.879Z,99699.00
2023-05-16T08:01:12.255Z,99706.00
2023-05-16T08:02:45.831Z,99697.00
2023-05-16T08:04:20.196Z,99695.00
2023-05-16T08:05:53.574Z,99688.00
2023-05-16T08:07:26.938Z,99691.00
2023-05-16T08:09:00.048Z,99690.00
2023-05-16T08:10:33.139Z,99692.00
2023-05-16T08:12:06.994Z,99685.00
2023-05-16T08:13:41.522Z,99684.00
2023-05-16T08:15:14.660Z,99683.00
2023-05-16T08:16:47.956Z,99691.00
2023-05-16T08:18:22.415Z,99684.00
2023-05-16T08:19:56.094Z,99686.00
2023-05-16T08:21:30.842Z,99690.00
2023-05-16T08:23:03.979Z,99693.00
2023-05-16T08:24:37.116Z,99685.00
2023-05-16T08:26:10.291Z,99700.00
2023-05-16T08:27:45.457Z,99693.00
2023-05-16T08:29:19.983Z,99697.00
2023-05-16T08:30:53.269Z,99688.00
2023-05-16T08:32:26.592Z,99696.00
2023-05-16T08:34:01.526Z,99691.00
2023-05-16T08:35:35.887Z,99694.00
2023-05-16T08:37:09.201Z,99703.00
2023-05-16T08:38:42.468Z,99697.00
2023-05-16T08:40:16.634Z,99694.00
2023-05-16T08:41:50.725Z,99693.00
2023-05-16T08:43:24.223Z,99688.00
2023-05-16T08:44:58.690Z,99701.00
2023-05-16T08:46:35.589Z,99689.00
2023-05-16T08:48:10.913Z,99703.00
2023-05-16T08:49:48.459Z,99698.00
2023-05-16T08:51:24.404Z,99690.00
2023-05-16T08:52:58.277Z,99696.00
2023-05-16T08:54:31.761Z,99696.00
2023-05-16T08:56:07.395Z,99700.00
2023-05-16T08:57:42.084Z,99694.00
2023-05-16T08:59:15.590Z,99691.00
2023-05-16T09:00:50.481Z,99693.00
2023-05-16T09:02:23.992Z,99700.00
2023-05-16T09:03:57.885Z,99699.00
2023-05-16T09:05:32.110Z,99693.00
2023-05-16T09:07:05.876Z,99698.00
2023-05-16T09:08:39.105Z,99693.00
2023-05-16T09:10:13.563Z,99688.00
2023-05-16T09:11:47.124Z,99689.00
2023-05-16T09:13:20.241Z,99691.00
2023-05-16T09:14:53.417Z,99697.00
2023-05-16T09:16:27.906Z,99687.00
2023-05-16T09:18:03.134Z,99688.00
2023-05-16T09:19:40.873Z,99699.00
2023-05-16T09:21:15.771Z,99693.00
2023-05-16T09:22:53.413Z,99692.00
2023-05-16T09:24:27.485Z,99700.00
2023-05-16T09:26:00.916Z,99700.00
2023-05-16T09:27:34.663Z,99687.00
2023-05-16T09:29:12.726Z,99699.00
2023-05-16T09:30:49.277Z,99688.00
2023-05-16T09:32:25.562Z,99685.00
2023-05-16T09:33:59.257Z,99683.00
2023-05-16T09:37:11.733Z,99695.00
2023-05-16T09:38:45.527Z,99681.00
2023-05-16T09:40:22.441Z,99705.00
2023-05-16T09:41:55.634Z,99700.00
2023-05-16T09:43:28.792Z,99703.00
2023-05-16T09:45:05.108Z,99698.00
2023-05-16T09:46:39.414Z,99697.00
2023-05-16T09:48:15.330Z,99697.00
2023-05-16T09:49:53.688Z,99694.00
2023-05-16T09:51:28.595Z,99693.00
2023-05-16T09:53:02.359Z,99689.00
2023-05-16T09:54:36.659Z,99700.00
2023-05-16T09:56:13.590Z,99695.00
2023-05-16T09:57:48.239Z,99702.00
2023-05-16T09:59:22.752Z,99704.00
2023-05-16T10:00:58.312Z,99701.00
2023-05-16T10:02:32.703Z,99694.00
2023-05-16T10:04:10.461Z,99694.00
2023-05-16T10:05:44.094Z,99704.00
2023-05-16T10:07:17.839Z,99698.00
2023-05-16T10:08:52.051Z,99695.00
2023-05-16T10:10:26.736Z,99693.00
2023-05-16T10:12:04.128Z,99699.00
2023-05-16T10:13:37.946Z,99702.00
2023-05-16T10:15:12.175Z,99703.00
2023-05-16T10:16:48.497Z,99710.00
2023-05-16T10:18:23.497Z,99703.00
2023-05-16T10:19:58.138Z,99706.00
2023-05-16T10:21:35.947Z,99703.00
2023-05-16T10:23:10.702Z,99710.00
2023-05-16T10:24:52.873Z,99706.00
2023-05-16T10:26:27.216Z,99711.00
2023-05-16T10:28:01.564Z,99714.00
2023-05-16T10:29:46.481Z,99706.00
2023-05-16T10:31:27.234Z,99709.00
2023-05-16T10:33:02.913Z,99704.00
2023-05-16T10:34:36.898Z,99701.00
2023-05-16T10:36:13.389Z,99687.00
2023-05-16T10:37:49.166Z,99701.00
2023-05-16T10:39:23.502Z,99696.00
2023-05-16T10:40:57.492Z,99680.00
2023-05-16T10:42:33.406Z,99689.00
2023-05-16T10:44:16.701Z,99681.00
2023-05-16T10:45:56.941Z,99678.00
2023-05-16T10:47:30.584Z,99679.00
2023-05-16T10:49:21.588Z,99672.00
2023-05-16T10:50:54.823Z,99680.00
2023-05-16T10:52:35.157Z,99690.00
2023-05-16T10:54:12.504Z,99686.00
2023-05-16T10:55:50.892Z,99681.00
2023-05-16T10:57:25.228Z,99678.00
2023-05-16T10:58:58.480Z,99683.00
2023-05-16T11:00:32.076Z,99680.00
2023-05-16T11:02:21.837Z,99683.00
2023-05-16T11:04:12.559Z,99687.00
2023-05-16T11:05:53.988Z,99690.00
2023-05-16T11:07:34.656Z,99692.00
2023-05-16T11:09:18.650Z,99688.00
2023-05-16T11:10:51.897Z,99690.00
2023-05-16T11:12:25.023Z,99700.00
2023-05-16T11:14:04.056Z,99703.00
2023-05-16T11:15:37.273Z,99702.00
2023-05-16T11:17:13.360Z,99704.00
2023-05-16T11:18:52.048Z,99701.00
2023-05-16T11:20:32.372Z,99700.00
2023-05-16T11:22:21.929Z,99711.00
2023-05-16T11:24:30.365Z,99700.00
2023-05-16T11:26:05.191Z,99692.00
2023-05-16T11:27:45.065Z,99694.00
2023-05-16T11:29:18.453Z,99699.00
2023-05-16T11:30:55.236Z,99701.00
2023-05-16T11:32:28.559Z,99700.00
2023-05-16T11:34:02.462Z,99695.00
2023-05-16T11:35:37.089Z,99704.00
2023-05-16T11:37:12.375Z,99696.00
2023-05-16T11:38:45.844Z,99693.00
2023-05-16T11:40:20.400Z,99707.00
2023-05-16T11:41:54.825Z,99710.00
2023-05-16T11:43:28.162Z,99694.00
2023-05-16T11:45:10.027Z,99704.00
2023-05-16T11:46:43.583Z,99711.00
2023-05-16T11:48:24.805Z,99696.00
2023-05-16T11:50:02.212Z,99703.00
2023-05-16T11:51:35.671Z,99704.00
2023-05-16T11:53:09.646Z,99705.00
2023-05-16T11:54:43.191Z,99689.00
2023-05-16T11:56:18.466Z,99699.00
2023-05-16T11:57:53.838Z,99689.00
2023-05-16T11:59:27.461Z,99694.00
2023-05-16T12:01:00.920Z,99703.00
2023-05-16T12:02:34.231Z,99688.00
2023-05-16T12:04:11.047Z,99697.00
2023-05-16T12:05:53.396Z,99694.00
2023-05-16T12:07:29.789Z,99677.00
2023-05-16T12:09:04.090Z,99688.00
2023-05-16T12:10:37.201Z,99679.00
2023-05-16T12:12:13.449Z,99683.00
2023-05-16T12:13:47.172Z,99673.00
2023-05-16T12:15:21.095Z,99667.00
2023-05-16T12:16:55.008Z,99682.00
2023-05-16T12:18:28.405Z,99683.00
2023-05-16T12:20:02.839Z,99679.00
2023-05-16T12:21:36.953Z,99676.00
2023-05-16T12:23:12.956Z,99678.00
2023-05-16T12:24:46.114Z,99677.00
2023-05-16T12:26:30.542Z,99678.00
2023-05-16T12:28:07.735Z,99676.00
2023-05-16T12:29:41.042Z,99677.00
2023-05-16T12:31:31.167Z,99690.00
2023-05-16T12:33:10.459Z,99678.00
2023-05-16T12:34:51.445Z,99683.00
2023-05-16T12:36:26.430Z,99684.00
2023-05-16T12:38:00.146Z,99691.00
2023-05-16T12:39:39.501Z,99686.00
2023-05-16T12:41:12.682Z,99684.00
2023-05-16T12:42:46.477Z,99693.00
2023-05-16T12:44:23.011Z,99695.00
2023-05-16T12:45:58.729Z,99691.00
2023-05-16T12:47:37.979Z,99697.00
2023-05-16T12:49:11.192Z,99696.00
2023-05-16T12:50:46.435Z,99692.00
2023-05-16T12:52:21.305Z,99703.00
2023-05-16T12:54:08.677Z,99701.00
2023-05-16T12:55:46.369Z,99703.00
2023-05-16T12:57:20.071Z,99702.00
2023-05-16T12:58:53.222Z,99696.00
2023-05-16T13:00:28.006Z,99708.00
2023-05-16T13:02:01.399Z,99709.00
2023-05-16T13:03:36.383Z,99711.00
2023-05-16T13:05:10.525Z,99714.00
2023-05-16T13:06:57.714Z,99703.00
2023-05-16T13:08:32.059Z,99721.00
2023-05-16T13:10:06.342Z,99714.00
2023-05-16T13:11:39.444Z,99711.00
2023-05-16T13:13:19.194Z,99709.00
2023-05-16T13:14:58.500Z,99719.00
2023-05-16T13:16:33.213Z,99716.00
2023-05-16T13:18:06.458Z,99709.00
2023-05-16T13:19:39.639Z,99715.00
2023-05-16T13:21:12.756Z,99712.00
2023-05-16T13:22:46.556Z,99722.00
2023-05-16T13:24:19.710Z,99728.00
2023-05-16T13:25:53.199Z,99725.00
2023-05-16T13:27:26.426Z,99722.00
2023-05-16T13:28:59.657Z,99718.00
2023-05-16T13:30:32.738Z,99725.00
2023-05-16T13:32:08.563Z,99715.00
2023-05-16T13:33:41.747Z,99724.00
2023-05-16T13:35:15.133Z,99722.00
2023-05-16T13:36:54.471Z,99718.00
2023-05-16T13:38:28.311Z,99717.00
2023-05-16T13:40:01.591Z,99724.00
2023-05-16T13:41:37.680Z,99722.00
2023-05-16T13:43:11.103Z,99726.00
2023-05-16T13:44:44.883Z,99719.00
2023-05-16T13:46:18.127Z,99723.00
2023-05-16T13:47:52.589Z,99712.00
2023-05-16T13:49:25.735Z,99721.00
2023-05-16T13:50:58.846Z,99718.00
2023-05-16T13:52:32.263Z,99717.00
2023-05-16T13:54:05.497Z,99716.00
2023-05-16T13:55:38.676Z,99729.00
2023-05-16T13:57:11.923Z,99722.00
2023-05-16T13:58:59.772Z,99724.00
2023-05-16T14:00:45.351Z,99730.00
2023-05-16T14:02:19.510Z,99731.00
2023-05-16T14:03:54.107Z,99726.00
2023-05-16T14:05:27.721Z,99735.00
2023-05-16T14:07:01.054Z,99729.00
2023-05-16T14:08:34.159Z,99736.00
2023-05-16T14:10:09.695Z,99739.00
2023-05-16T14:11:42.761Z,99732.00
2023-05-16T14:13:16.268Z,99736.00
2023-05-16T14:14:49.408Z,99743.00
2023-05-16T14:16:23.089Z,99733.00
2023-05-16T14:17:56.302Z,99733.00
2023-05-16T14:19:31.607Z,99738.00
2023-05-16T14:21:05.187Z,99724.00
2023-05-16T14:22:39.526Z,99732.00
2023-05-16T14:24:12.885Z,99724.00
2023-05-16T14:25:45.998Z,99718.00
2023-05-16T14:27:19.160Z,99720.00
2023-05-16T14:28:52.420Z,99724.00
2023-05-16T14:30:26.018Z,99712.00
2023-05-16T14:31:59.324Z,99708.00
2023-05-16T14:33:33.176Z,99712.00
2023-05-16T14:35:09.387Z,99714.00
2023-05-16T14:36:43.572Z,99716.00
2023-05-16T14:38:16.678Z,99722.00
2023-05-16T14:39:50.577Z,99724.00
2023-05-16T14:41:23.838Z,99726.00
2023-05-16T14:42:56.995Z,99720.00
2023-05-16T14:44:30.157Z,99716.00
2023-05-16T14:46:03.329Z,99722.00
2023-05-16T14:47:36.538Z,99724.00
2023-05-16T14:49:09.920Z,99739.00
2023-05-16T14:50:44.459Z,99734.00
2023-05-16T14:52:17.621Z,99740.00
2023-05-16T14:54:05.586Z,99741.00
2023-05-16T14:55:38.801Z,99734.00
2023-05-16T14:57:11.986Z,99738.00
2023-05-16T14:58:45.059Z,99744.00
2023-05-16T15:00:24.047Z,99739.00
2023-05-16T15:01:57.173Z,99739.00
2023-05-16T15:03:35.448Z,99745.00
2023-05-16T15:05:16.824Z,99734.00
2023-05-16T15:06:51.404Z,99730.00
2023-05-16T15:08:24.954Z,99727.00
2023-05-16T15:09:58.142Z,99733.00
2023-05-16T15:11:32.143Z,99742.00
2023-05-16T15:13:05.257Z,99738.00
2023-05-16T15:14:38.648Z,99735.00
2023-05-16T15:16:12.087Z,99743.00
2023-05-16T15:17:45.353Z,99744.00
2023-05-16T15:19:18.669Z,99742.00
2023-05-16T15:20:53.202Z,99737.00
2023-05-16T15:22:29.984Z,99737.00
2023-05-16T15:24:03.477Z,99737.00
2023-05-16T15:25:36.748Z,99741.00
2023-05-16T15:27:09.903Z,99740.00
2023-05-16T15:28:43.050Z,99741.00
2023-05-16T15:30:16.493Z,99742.00
2023-05-16T15:31:49.686Z,99742.00
2023-05-16T15:33:22.875Z,99745.00
2023-05-16T15:34:56.048Z,99749.00
2023-05-16T15:36:29.244Z,99760.00
2023-05-16T15:38:03.835Z,99756.00
2023-05-16T15:39:37.037Z,99750.00
2023-05-16T15:41:22.376Z,99752.00
2023-05-16T15:43:03.904Z,99764.00
2023-05-16T15:44:37.037Z,99764.00
2023-05-16T15:46:11.103Z,99765.00
2023-05-16T15:47:44.528Z,99770.00
2023-05-16T15:49:17.607Z,99768.00
2023-05-16T15:50:50.706Z,99778.00
2023-05-16T15:52:23.764Z,99760.00
2023-05-16T15:53:58.257Z,99773.00
2023-05-16T15:55:31.578Z,99771.00
2023-05-16T15:57:05.126Z,99773.00
2023-05-16T15:58:38.340Z,99780.00
2023-05-16T16:00:13.356Z,99788.00
2023-05-16T16:01:47.319Z,99794.00
2023-05-16T16:03:20.797Z,99784.00
2023-05-16T16:04:54.132Z,99789.00
2023-05-16T16:06:27.649Z,99791.00
2023-05-16T16:08:01.016Z,99797.00
2023-05-16T16:09:35.555Z,99790.00
2023-05-16T16:11:09.117Z,99794.00
2023-05-16T16:12:42.383Z,99800.00
2023-05-16T16:14:15.485Z,99796.00
2023-05-16T16:15:48.647Z,99797.00
2023-05-16T16:17:21.933Z,99796.00
2023-05-16T16:18:55.389Z,99795.00
2023-05-16T16:20:28.905Z,99796.00
2023-05-16T16:22:01.990Z,99802.00
2023-05-16T16:23:35.055Z,99801.00
2023-05-16T16:25:10.353Z,99818.00
2023-05-16T16:26:43.623Z,99807.00
2023-05-16T16:28:16.811Z,99796.00
2023-05-16T16:29:49.957Z,99802.00
2023-05-16T16:31:23.140Z,99799.00
2023-05-16T16:32:56.460Z,99795.00
2023-05-16T16:34:29.788Z,99801.00
2023-05-16T16:36:06.039Z,99804.00
2023-05-16T16:37:39.354Z,99797.00
2023-05-16T16:39:12.650Z,99810.00
2023-05-16T16:40:47.168Z,99807.00
2023-05-16T16:42:20.270Z,99802.00
2023-05-16T16:43:53.530Z,99817.00
2023-05-16T16:45:27.673Z,99806.00
2023-05-16T16:47:01.467Z,99820.00
2023-05-16T16:48:35.117Z,99825.00
2023-05-16T16:50:09.767Z,99813.00
2023-05-16T16:51:42.895Z,99827.00
2023-05-16T16:53:16.152Z,99827.00
2023-05-16T16:54:49.279Z,99830.00
2023-05-16T16:56:23.752Z,99825.00
2023-05-16T16:57:57.126Z,99821.00
2023-05-16T16:59:30.359Z,99830.00
2023-05-16T17:01:03.945Z,99829.00
2023-05-16T17:02:37.246Z,99827.00
2023-05-16T17:04:10.457Z,99826.00
2023-05-16T17:05:44.889Z,99826.00
2023-05-16T17:07:18.056Z,99823.00
2023-05-16T17:08:51.199Z,99832.00
2023-05-16T17:10:24.313Z,99822.00
2023-05-16T17:12:04.449Z,99825.00
2023-05-16T17:13:41.600Z,99825.00
2023-05-16T17:15:14.870Z,99826.00
2023-05-16T17:16:47.997Z,99836.00
2023-05-16T17:18:21.724Z,99840.00
2023-05-16T17:19:54.832Z,99839.00
2023-05-16T17:21:28.066Z,99839.00
2023-05-16T17:23:01.521Z,99844.00
2023-05-16T17:24:34.757Z,99840.00
2023-05-16T17:26:07.840Z,99839.00
2023-05-16T17:27:43.158Z,99837.00
2023-05-16T17:29:16.416Z,99846.00
2023-05-16T17:30:49.694Z,99844.00
2023-05-16T17:32:22.894Z,99835.00
2023-05-16T17:33:56.279Z,99854.00
2023-05-16T17:35:29.887Z,99844.00
2023-05-16T17:37:06.235Z,99848.00
2023-05-16T17:38:40.033Z,99858.00
2023-05-16T17:40:16.905Z,99860.00
2023-05-16T17:41:50.342Z,99859.00
2023-05-16T17:43:25.000Z,99858.00
2023-05-16T17:45:01.389Z,99857.00
2023-05-16T17:46:35.377Z,99855.00
2023-05-16T17:48:08.569Z,99862.00
2023-05-16T17:49:41.873Z,99857.00
2023-05-16T17:51:15.025Z,99862.00
2023-05-16T17:52:48.168Z,99871.00
2023-05-16T17:54:22.630Z,99864.00
2023-05-16T17:55:55.791Z,99871.00
2023-05-16T17:57:29.102Z,99865.00
2023-05-16T17:59:03.699Z,99863.00
2023-05-16T18:00:38.335Z,99871.00
2023-05-16T18:02:15.131Z,99867.00
2023-05-16T18:03:48.648Z,99873.00
2023-05-16T18:05:22.227Z,99866.00
2023-05-16T18:06:56.141Z,99877.00
2023-05-16T18:08:29.707Z,99870.00
2023-05-16T18:10:03.486Z,99866.00
2023-05-16T18:11:39.387Z,99876.00
2023-05-16T18:13:13.606Z,99877.00
2023-05-16T18:14:48.321Z,99873.00
2023-05-16T18:16:22.440Z,99879.00
2023-05-16T18:17:55.737Z,99876.00
2023-05-16T18:19:29.163Z,99880.00
2023-05-16T18:21:02.852Z,99880.00
2023-05-16T18:22:35.490Z,99878.00
2023-05-16T18:24:11.362Z,99881.00
2023-05-16T18:25:44.502Z,99887.00
2023-05-16T18:27:17.770Z,99889.00
2023-05-16T18:28:51.052Z,99887.00
2023-05-16T18:30:27.728Z,99888.00
2023-05-16T18:32:00.997Z,99893.00
2023-05-16T18:33:34.502Z,99901.00
2023-05-16T18:35:09.188Z,99897.00